LTAC/ESB METAR and TAF weather

Enter ICAO airport designator
Station Type Date Time Source
LTAC METAR 2021/08/01 16:20 UTC NOAA

LTAC 011620Z 36012KT CAVOK 30/04 Q1013 NOSIG


Station Type Date Time Source
LTAC Decoded METAR 2021/08/01 16:20 UTC NOAA

Ankara / Esenboga, Turkey (LTAC) 40-07N 032-59E 949M
Aug 01, 2021 - 12:20 PM EDT / 2021.08.01 1620 UTC
Wind: from the N (360 degrees) at 14 MPH (12 KT):0
Visibility: greater than 7 mile(s):0
Temperature: 86 F (30 C)
Dew Point: 39 F (4 C)
Relative Humidity: 19%
Pressure (altimeter): 29.91 in. Hg (1013 hPa)
ob: LTAC 011620Z 36012KT CAVOK 30/04 Q1013 NOSIG
cycle: 16

Station Type Date Time Source
LTAC TAF 2021/08/01 12:03 UTC NOAA

TAF TAF LTAC 011040Z 0112/0212 02012KT CAVOK
BECMG 0118/0121 VRB02KT

Example: see airport list